Detall de PIREP

Printer-friendly versionPDF version

[2014/01/12 08:58:00]
Flight IATA:CT2206
Pilot Number:012
Company ICAO:CAT
Aircraft Type:F100/A
PAX:103
Aircraft Registration:PFJ
Departing Airport: LFMP
Destination Airport: LFSB
Alternate Airport:LFLL
Online: VATSIM
Route:SIJAN A27 MOU G21 RLP G4 LUL G42 ARPUS
Flight Level:F180
No Slew and time accel
No pause
Crash detect
Detect pilot in Cockpit between each 30 and 45 minutes
08:58 Zero fuel Weight: 79021 Lbs, Fuel Weight: 14565 Lbs
08:58 VATSIM:LFMP 120830Z VRB01KT 7000 BKN008 12/11 Q1022 NOSIG
08:58 VATSIM:LFSB 120830Z 35005KT 0400 R15/2000U R33/1200U FG VV/// 04/04 Q1025 NOSIG
08:58 VOICE CATALONIAN
09:01 Parking Brakes off
09:05 Take-off
09:05 Take off Weight: 93190 Lbs
09:05 Wind: 359º @ 001 Knots Heading: 328º
09:05 POS N42º 45´ 00´´ E002º 51´ 54´´
09:05 Gear Up: 149 Knots
09:05 Flaps:2 at 150 Knots
09:05 Flaps:1 at 191 Knots
09:05 Flaps:0 at 193 Knots
09:12 TOC
09:12 Fuel Weight: 12932 Lb
09:20 Wind:302º@007 Knots Heading: 006º Ground Speed: 401 Knots Altitude 18264 ft
09:35 Wind:107º@002 Knots Heading: 019º Ground Speed: 400 Knots Altitude 18261 ft
09:50 Wind:165º@005 Knots Heading: 043º Ground Speed: 403 Knots Altitude 18280 ft
10:04 TOD
10:04 Fuel Weight: 7859 Lb
10:05 Wind:311º@002 Knots Heading: 096º Ground Speed: 350 Knots Altitude 17267 ft
10:17 Flaps:1 at 212 Knots
10:19 Flaps:2 at 184 Knots
10:19 Gear Down: 151 Knots
10:20 Wind:037º@005 Knots Heading: 356º Ground Speed: 151 Knots Altitude 5347 ft
10:20 Flaps:3 at 144 Knots
10:20 Flaps:4 at 127 Knots
10:25 TouchDown:Rate -579 ft/min Speed: 116 Knots
10:25 VATSIM:LFSB 121000Z 34005KT 2000 BR BKN001 BKN018 04/04 Q1025 BECMG 3000 BR BKN002
10:25 Land
10:25 Wind:318º@004 Knots
10:25 Heading: 334º
10:25 Flight Duration: 01:20
10:25 Landing Weight: 85887 Lbs
10:25 POS N47º 36´ 16´´ E007º 31´ 08´´
10:29 Parking brakes on
10:29 Block to Block Duration: 01:28
10:29 Final Fuel: 6657 Lbls
10:29 Spent Fuel: 7907 Lbls
10:29 Flight Length: 467 NM
10:29 TOD Land Length: 80 NM

Exportar CSV

Powered by Drupal - Modified by Danger4k